createdAt,value
2019-01-29T00:00:58.784Z,1.14
2019-01-29T00:03:27.996Z,1.14
2019-01-29T00:05:57.241Z,1.08
2019-01-29T00:08:26.443Z,1.10
2019-01-29T00:10:55.682Z,1.10
2019-01-29T00:13:25.200Z,1.05
2019-01-29T00:15:54.706Z,1.02
2019-01-29T00:18:23.916Z,1.07
2019-01-29T00:20:53.160Z,1.10
2019-01-29T00:23:22.367Z,1.09
2019-01-29T00:25:51.607Z,1.13
2019-01-29T00:28:20.809Z,1.12
2019-01-29T00:30:50.073Z,1.16
2019-01-29T00:33:19.290Z,1.14
2019-01-29T00:35:48.520Z,1.16
2019-01-29T00:38:17.754Z,1.16
2019-01-29T00:40:47.741Z,1.18
2019-01-29T00:43:17.335Z,1.24
2019-01-29T00:45:46.559Z,1.20
2019-01-29T00:48:16.201Z,1.24
2019-01-29T00:50:47.633Z,1.25
2019-01-29T00:53:17.192Z,1.25
2019-01-29T00:55:46.415Z,1.28
2019-01-29T00:58:15.655Z,1.23
2019-01-29T01:00:45.127Z,1.28
2019-01-29T01:03:14.357Z,1.30
2019-01-29T01:05:44.403Z,1.35
2019-01-29T01:08:13.632Z,1.34
2019-01-29T01:10:43.080Z,1.34
2019-01-29T01:13:13.896Z,1.31
2019-01-29T01:15:43.096Z,1.34
2019-01-29T01:18:12.331Z,1.34
2019-01-29T01:20:41.536Z,1.33
2019-01-29T01:23:10.779Z,1.36
2019-01-29T01:25:42.124Z,1.38
2019-01-29T01:28:11.362Z,1.37
2019-01-29T01:30:40.562Z,1.38
2019-01-29T01:33:10.051Z,1.34
2019-01-29T01:35:39.264Z,1.34
2019-01-29T01:38:08.792Z,1.36
2019-01-29T01:40:38.005Z,1.37
2019-01-29T01:43:07.237Z,1.39
2019-01-29T01:45:36.451Z,1.37
2019-01-29T01:48:05.789Z,1.33
2019-01-29T01:50:35.038Z,1.31
2019-01-29T01:53:04.699Z,1.34
2019-01-29T01:55:33.715Z,1.31
2019-01-29T01:58:03.232Z,1.33
2019-01-29T02:00:32.445Z,1.41
2019-01-29T02:03:01.671Z,1.27
2019-01-29T02:05:30.878Z,1.31
2019-01-29T02:08:00.104Z,1.34
2019-01-29T02:10:30.858Z,1.38
2019-01-29T02:13:00.436Z,1.33
2019-01-29T02:15:31.940Z,1.31
2019-01-29T02:18:01.174Z,1.35
2019-01-29T02:20:30.389Z,1.33
2019-01-29T02:23:07.585Z,1.32
2019-01-29T02:25:30.557Z,1.33
2019-01-29T02:27:59.794Z,1.35
2019-01-29T02:30:29.039Z,1.30
2019-01-29T02:32:58.667Z,1.27
2019-01-29T02:35:27.877Z,1.26
2019-01-29T02:37:57.125Z,1.25
2019-01-29T02:40:29.017Z,1.25
2019-01-29T02:42:58.240Z,1.34
2019-01-29T02:45:27.464Z,1.24
2019-01-29T02:47:56.693Z,1.23
2019-01-29T02:50:25.930Z,1.16
2019-01-29T02:52:55.185Z,1.13
2019-01-29T02:55:24.385Z,1.20
2019-01-29T02:57:53.609Z,1.01
2019-01-29T03:00:25.128Z,0.90
2019-01-29T03:02:54.340Z,0.93
2019-01-29T03:05:23.662Z,0.94
2019-01-29T03:07:53.575Z,0.88
2019-01-29T03:10:24.728Z,0.87
2019-01-29T03:12:54.042Z,0.88
2019-01-29T03:15:28.546Z,0.89
2019-01-29T03:17:57.900Z,0.84
2019-01-29T03:20:27.127Z,0.83
2019-01-29T03:22:56.682Z,0.83
2019-01-29T03:25:25.913Z,0.84
2019-01-29T03:27:56.923Z,0.88
2019-01-29T03:30:26.167Z,0.84
2019-01-29T03:32:55.377Z,0.84
2019-01-29T03:35:24.808Z,0.94
2019-01-29T03:37:54.037Z,0.94
2019-01-29T03:40:25.525Z,1.00
2019-01-29T03:42:55.363Z,1.05
2019-01-29T03:45:24.704Z,0.98
2019-01-29T03:47:53.916Z,1.04
2019-01-29T03:50:23.624Z,1.11
2019-01-29T03:52:52.830Z,1.10
2019-01-29T03:55:22.167Z,1.09
2019-01-29T03:57:51.508Z,1.13
2019-01-29T04:00:23.010Z,1.12
2019-01-29T04:02:52.539Z,1.07
2019-01-29T04:05:21.864Z,1.03
2019-01-29T04:07:51.285Z,1.01
2019-01-29T04:10:20.628Z,1.05
2019-01-29T04:12:49.885Z,0.96
2019-01-29T04:15:20.295Z,0.96
2019-01-29T04:17:50.944Z,0.99
2019-01-29T04:20:20.820Z,0.92
2019-01-29T04:22:50.206Z,0.86
2019-01-29T04:25:19.566Z,0.82
2019-01-29T04:27:48.848Z,0.79
2019-01-29T04:30:20.280Z,0.79
2019-01-29T04:32:49.690Z,0.73
2019-01-29T04:35:18.992Z,0.74
2019-01-29T04:37:48.315Z,0.75
2019-01-29T04:40:19.274Z,0.73
2019-01-29T04:42:48.889Z,0.76
2019-01-29T04:45:18.615Z,0.83
2019-01-29T04:47:48.707Z,0.84
2019-01-29T04:50:22.318Z,0.80
2019-01-29T04:52:51.620Z,0.79
2019-01-29T04:55:23.718Z,0.81
2019-01-29T04:57:52.869Z,0.72
2019-01-29T05:00:27.358Z,0.75
2019-01-29T05:02:56.586Z,0.74
2019-01-29T05:05:26.352Z,0.73
2019-01-29T05:07:55.806Z,0.67
2019-01-29T05:10:25.325Z,0.74
2019-01-29T05:12:54.568Z,0.72
2019-01-29T05:15:23.779Z,0.70
2019-01-29T05:17:53.029Z,0.69
2019-01-29T05:20:23.223Z,0.68
2019-01-29T05:22:53.627Z,0.70
2019-01-29T05:25:22.843Z,0.70
2019-01-29T05:27:52.071Z,0.70
2019-01-29T05:30:23.364Z,0.67
2019-01-29T05:32:52.715Z,0.69
2019-01-29T05:35:21.926Z,0.69
2019-01-29T05:37:51.173Z,0.67
2019-01-29T05:40:22.027Z,0.67
2019-01-29T05:42:51.618Z,0.69
2019-01-29T05:45:21.621Z,0.68
2019-01-29T05:47:50.891Z,0.58
2019-01-29T05:50:20.854Z,0.60
2019-01-29T05:52:50.197Z,0.59
2019-01-29T05:55:21.110Z,0.63
2019-01-29T05:57:51.826Z,0.64
2019-01-29T06:00:24.820Z,0.63
2019-01-29T06:02:57.562Z,0.65
2019-01-29T06:05:27.077Z,0.67
2019-01-29T06:07:56.319Z,0.70
2019-01-29T06:10:25.642Z,0.72
2019-01-29T06:12:54.920Z,0.71
2019-01-29T06:15:26.449Z,0.67
2019-01-29T06:17:55.781Z,0.74
2019-01-29T06:20:26.380Z,0.76
2019-01-29T06:22:55.736Z,0.75
2019-01-29T06:25:24.960Z,0.76
2019-01-29T06:27:56.825Z,0.80
2019-01-29T06:30:27.627Z,0.78
2019-01-29T06:32:59.615Z,0.71
2019-01-29T06:35:28.872Z,0.73
2019-01-29T06:38:03.113Z,0.72
2019-01-29T06:40:32.322Z,0.78
2019-01-29T06:43:01.558Z,0.81
2019-01-29T06:45:30.842Z,0.81
2019-01-29T06:48:00.247Z,0.80
2019-01-29T06:50:30.292Z,0.71
2019-01-29T06:52:59.537Z,0.69
2019-01-29T06:55:29.055Z,0.72
2019-01-29T06:57:58.283Z,0.79
2019-01-29T07:00:29.679Z,0.84
2019-01-29T07:03:00.891Z,0.85
2019-01-29T07:05:30.399Z,0.92
2019-01-29T07:07:59.639Z,1.01
2019-01-29T07:10:30.263Z,1.05
2019-01-29T07:12:59.489Z,1.04
2019-01-29T07:15:46.790Z,1.08
2019-01-29T07:18:43.970Z,1.08
2019-01-29T07:21:13.178Z,1.07
2019-01-29T07:23:42.424Z,1.20
2019-01-29T07:26:11.992Z,1.14
2019-01-29T07:28:41.224Z,1.11
2019-01-29T07:31:10.438Z,1.10
2019-01-29T07:33:41.955Z,1.09
2019-01-29T07:36:12.326Z,1.27
2019-01-29T07:38:41.555Z,1.33
2019-01-29T07:41:10.784Z,1.55
2019-01-29T07:43:42.476Z,1.59
2019-01-29T07:46:11.889Z,1.72
2019-01-29T07:48:41.118Z,1.79
2019-01-29T07:51:10.370Z,1.73
2019-01-29T07:53:42.062Z,1.59
2019-01-29T07:56:11.624Z,1.50
2019-01-29T07:58:41.958Z,1.60
2019-01-29T08:01:11.187Z,1.83
2019-01-29T08:03:40.426Z,2.06
2019-01-29T08:06:09.640Z,2.25
2019-01-29T08:08:38.908Z,2.22
2019-01-29T08:11:08.127Z,2.34
2019-01-29T08:13:37.350Z,2.47
2019-01-29T08:16:06.701Z,2.58
2019-01-29T08:18:37.546Z,2.88
2019-01-29T08:21:07.099Z,3.39
2019-01-29T08:23:36.660Z,3.70
2019-01-29T08:26:05.899Z,3.87
2019-01-29T08:28:35.138Z,3.78
2019-01-29T08:31:04.487Z,3.41
2019-01-29T08:33:33.715Z,3.43
2019-01-29T08:36:03.036Z,3.19
2019-01-29T08:38:32.220Z,3.14
2019-01-29T08:41:01.465Z,2.95
2019-01-29T08:43:30.680Z,2.67
2019-01-29T08:46:00.317Z,2.61
2019-01-29T08:48:29.523Z,2.52
2019-01-29T08:50:58.861Z,2.64
2019-01-29T08:53:28.054Z,2.88
2019-01-29T08:55:57.282Z,2.98
2019-01-29T08:58:28.771Z,2.99
2019-01-29T09:00:58.001Z,2.59
2019-01-29T09:03:27.201Z,2.50
2019-01-29T09:05:56.444Z,2.57
2019-01-29T09:08:25.661Z,2.63
2019-01-29T09:10:54.895Z,2.71
2019-01-29T09:13:24.979Z,2.88
2019-01-29T09:15:54.223Z,2.98
2019-01-29T09:18:23.435Z,2.62
2019-01-29T09:20:54.138Z,2.52
2019-01-29T09:23:23.647Z,2.63
2019-01-29T09:25:52.872Z,2.56
2019-01-29T09:28:23.131Z,2.52
2019-01-29T09:30:52.374Z,2.52
2019-01-29T09:33:25.518Z,2.47
2019-01-29T09:35:54.764Z,2.51
2019-01-29T09:38:23.975Z,2.21
2019-01-29T09:40:53.207Z,2.20
2019-01-29T09:43:22.513Z,2.43
2019-01-29T09:45:53.882Z,2.56
2019-01-29T09:48:23.089Z,2.58
2019-01-29T09:50:52.343Z,2.96
2019-01-29T09:53:21.865Z,3.31
2019-01-29T09:55:51.110Z,3.38
2019-01-29T09:58:20.147Z,3.16
2019-01-29T10:00:53.792Z,2.97
2019-01-29T10:03:23.354Z,3.04
2019-01-29T10:05:52.590Z,3.16
2019-01-29T10:08:22.846Z,3.19
2019-01-29T10:10:53.273Z,3.06
2019-01-29T10:13:22.766Z,3.29
2019-01-29T10:15:53.516Z,3.19
2019-01-29T10:18:23.057Z,3.07
2019-01-29T10:20:53.709Z,3.11
2019-01-29T10:23:23.059Z,3.14
2019-01-29T10:25:53.130Z,3.08
2019-01-29T10:28:22.349Z,2.98
2019-01-29T10:30:52.749Z,2.97
2019-01-29T10:33:21.998Z,2.89
2019-01-29T10:35:51.211Z,2.80
2019-01-29T10:38:20.454Z,2.75
2019-01-29T10:40:49.753Z,2.49
2019-01-29T10:43:18.987Z,2.48
2019-01-29T10:45:48.497Z,2.32
2019-01-29T10:48:19.025Z,2.36
2019-01-29T10:50:48.265Z,2.40
2019-01-29T10:53:18.051Z,2.25
2019-01-29T10:55:47.758Z,2.46
2019-01-29T10:58:16.980Z,2.64
2019-01-29T11:00:46.163Z,2.71
2019-01-29T11:03:15.405Z,2.82
2019-01-29T11:05:47.151Z,3.08
2019-01-29T11:08:16.576Z,3.25
2019-01-29T11:10:46.514Z,3.13
2019-01-29T11:13:16.854Z,3.15
2019-01-29T11:15:46.220Z,2.99
2019-01-29T11:18:16.276Z,3.14
2019-01-29T11:20:45.513Z,3.41
2019-01-29T11:23:14.761Z,3.33
2019-01-29T11:25:44.341Z,3.37
2019-01-29T11:28:14.512Z,3.55
2019-01-29T11:30:43.704Z,3.86
2019-01-29T11:33:13.811Z,4.02
2019-01-29T11:35:43.805Z,4.41
2019-01-29T11:38:13.435Z,4.50
2019-01-29T11:40:42.740Z,4.35
2019-01-29T11:43:11.976Z,4.42
2019-01-29T11:45:43.837Z,4.32
2019-01-29T11:48:13.071Z,4.63
2019-01-29T11:50:42.377Z,4.97
2019-01-29T11:53:11.621Z,5.21
2019-01-29T11:55:40.835Z,5.56
2019-01-29T11:58:10.367Z,6.13
2019-01-29T12:00:59.575Z,6.36
2019-01-29T12:03:31.816Z,6.24
2019-01-29T12:06:01.093Z,5.84
2019-01-29T12:08:31.731Z,6.38
2019-01-29T12:11:01.458Z,7.10
2019-01-29T12:13:30.698Z,7.65
2019-01-29T12:15:59.899Z,7.82
2019-01-29T12:18:29.154Z,7.91
2019-01-29T12:20:58.384Z,7.65
2019-01-29T12:23:27.619Z,7.50
2019-01-29T12:25:56.817Z,6.96
2019-01-29T12:28:26.218Z,6.65
2019-01-29T12:30:55.452Z,6.79
2019-01-29T12:33:24.652Z,6.66
2019-01-29T12:35:53.888Z,6.84
2019-01-29T12:38:22.915Z,6.65
2019-01-29T12:40:53.421Z,6.69
2019-01-29T12:43:22.818Z,6.77
2019-01-29T12:45:52.074Z,7.69
2019-01-29T12:48:21.276Z,8.51
2019-01-29T12:50:54.800Z,8.70
2019-01-29T12:53:27.895Z,8.80
2019-01-29T12:55:57.151Z,8.33
2019-01-29T12:58:26.387Z,8.20
2019-01-29T13:00:57.106Z,8.40
2019-01-29T13:03:26.338Z,8.50
2019-01-29T13:05:55.621Z,8.61
2019-01-29T13:08:24.822Z,8.45
2019-01-29T13:10:54.065Z,7.91
2019-01-29T13:13:23.579Z,7.65
2019-01-29T13:15:52.815Z,7.16
2019-01-29T13:18:22.041Z,6.46
2019-01-29T13:20:51.583Z,5.82
2019-01-29T13:23:20.798Z,5.52
2019-01-29T13:25:50.051Z,5.00
2019-01-29T13:28:19.576Z,4.72
2019-01-29T13:30:49.650Z,4.88
2019-01-29T13:33:19.245Z,4.95
2019-01-29T13:35:48.483Z,5.15
2019-01-29T13:38:18.073Z,5.35
2019-01-29T13:40:48.398Z,5.67
2019-01-29T13:43:17.899Z,6.75
2019-01-29T13:45:47.480Z,7.44
2019-01-29T13:48:17.265Z,7.98
2019-01-29T13:50:54.500Z,8.20
2019-01-29T13:53:23.717Z,8.50
2019-01-29T13:55:52.948Z,9.31
2019-01-29T13:58:22.140Z,8.89
2019-01-29T14:00:51.374Z,8.30
2019-01-29T14:03:20.936Z,7.42
2019-01-29T14:05:50.148Z,7.17
2019-01-29T14:08:20.396Z,6.98
2019-01-29T14:10:49.633Z,6.63
2019-01-29T14:13:19.407Z,6.00
2019-01-29T14:15:51.064Z,5.06
2019-01-29T14:18:22.184Z,4.58
2019-01-29T14:20:51.757Z,4.14
2019-01-29T14:23:22.134Z,3.96
2019-01-29T14:25:51.688Z,3.97
2019-01-29T14:28:20.922Z,3.66
2019-01-29T14:30:50.176Z,3.00
2019-01-29T14:33:19.444Z,2.63
2019-01-29T14:35:57.625Z,2.44
2019-01-29T14:39:23.152Z,2.56
2019-01-29T14:41:52.358Z,2.76
2019-01-29T14:44:31.049Z,3.42
2019-01-29T14:47:02.752Z,3.70
2019-01-29T14:49:31.996Z,3.98
2019-01-29T14:52:01.252Z,4.09
2019-01-29T14:54:30.792Z,4.44
2019-01-29T14:57:00.008Z,4.74
2019-01-29T14:59:29.282Z,5.21
2019-01-29T15:01:58.849Z,5.57
2019-01-29T15:04:28.107Z,5.89
2019-01-29T15:06:57.310Z,6.06
2019-01-29T15:09:26.644Z,6.21
2019-01-29T15:11:55.873Z,6.36
2019-01-29T15:14:27.524Z,6.42
2019-01-29T15:17:14.359Z,6.42
2019-01-29T15:19:43.595Z,6.23
2019-01-29T15:22:12.901Z,5.95
2019-01-29T15:24:42.456Z,5.69
2019-01-29T15:27:14.153Z,5.50
2019-01-29T15:29:43.697Z,5.22
2019-01-29T15:32:13.531Z,4.98
2019-01-29T15:34:42.872Z,4.68
2019-01-29T15:37:12.087Z,4.58
2019-01-29T15:39:44.003Z,4.35
2019-01-29T15:42:13.600Z,4.14
2019-01-29T15:44:42.846Z,3.94
2019-01-29T15:47:13.370Z,3.69
2019-01-29T15:49:43.837Z,3.56
2019-01-29T15:52:13.588Z,3.31
2019-01-29T15:54:43.177Z,3.05
2019-01-29T15:57:14.296Z,2.83
2019-01-29T15:59:44.179Z,2.59
2019-01-29T16:02:13.402Z,2.35
2019-01-29T16:04:43.621Z,2.13
2019-01-29T16:07:13.074Z,2.01
2019-01-29T16:09:42.394Z,1.84
2019-01-29T16:12:11.811Z,1.60
2019-01-29T16:14:41.044Z,1.51
2019-01-29T16:17:10.301Z,1.36
2019-01-29T16:19:39.542Z,1.27
2019-01-29T16:22:12.354Z,1.17
2019-01-29T16:24:41.601Z,1.06
2019-01-29T16:27:10.815Z,0.99
2019-01-29T16:29:40.086Z,0.88
2019-01-29T16:32:11.367Z,0.84
2019-01-29T16:34:40.593Z,0.78
2019-01-29T16:37:09.848Z,0.77
2019-01-29T16:39:39.066Z,0.75
2019-01-29T16:42:08.581Z,0.66
2019-01-29T16:44:39.310Z,0.60
2019-01-29T16:47:08.665Z,0.58
2019-01-29T16:49:37.900Z,0.56
2019-01-29T16:52:07.291Z,0.52
2019-01-29T16:54:38.327Z,0.54
2019-01-29T16:57:09.513Z,0.46
2019-01-29T16:59:41.357Z,0.45
2019-01-29T17:02:10.831Z,0.44
2019-01-29T17:04:40.388Z,0.44
2019-01-29T17:07:09.706Z,0.37
2019-01-29T17:09:39.733Z,0.34
2019-01-29T17:12:11.546Z,0.32
2019-01-29T17:14:40.770Z,0.30
2019-01-29T17:17:10.007Z,0.27
2019-01-29T17:19:40.502Z,0.24
2019-01-29T17:22:09.787Z,0.20
2019-01-29T17:24:39.216Z,0.18
2019-01-29T17:27:09.985Z,0.12
2019-01-29T17:29:39.244Z,0.10
2019-01-29T17:32:08.501Z,0.09
2019-01-29T17:34:37.746Z,0.03
2019-01-29T17:37:08.266Z,-0.05
2019-01-29T17:39:38.301Z,-0.08
2019-01-29T17:42:07.865Z,-0.14
2019-01-29T17:44:37.102Z,-0.18
2019-01-29T17:47:06.463Z,-0.27
2019-01-29T17:49:35.689Z,-0.27
2019-01-29T17:52:05.150Z,-0.30
2019-01-29T17:54:34.776Z,-0.36
2019-01-29T17:57:05.850Z,-0.46
2019-01-29T17:59:37.282Z,-0.46
2019-01-29T18:02:09.540Z,-0.43
2019-01-29T18:04:38.765Z,-0.47
2019-01-29T18:07:08.020Z,-0.52
2019-01-29T18:09:38.518Z,-0.55
2019-01-29T18:12:07.955Z,-0.62
2019-01-29T18:14:37.186Z,-0.66
2019-01-29T18:17:06.413Z,-0.74
2019-01-29T18:19:35.657Z,-0.73
2019-01-29T18:22:05.066Z,-0.73
2019-01-29T18:24:34.311Z,-0.77
2019-01-29T18:27:03.541Z,-0.73
2019-01-29T18:29:32.910Z,-0.74
2019-01-29T18:32:04.415Z,-0.75
2019-01-29T18:34:33.659Z,-0.80
2019-01-29T18:37:02.972Z,-0.78
2019-01-29T18:39:32.616Z,-0.80
2019-01-29T18:42:02.970Z,-0.84
2019-01-29T18:44:32.217Z,-0.89
2019-01-29T18:47:01.463Z,-0.96
2019-01-29T18:49:31.426Z,-1.03
2019-01-29T18:52:00.680Z,-1.08
2019-01-29T18:54:32.685Z,-1.12
2019-01-29T18:57:01.933Z,-1.12
2019-01-29T18:59:32.308Z,-1.11
2019-01-29T19:02:01.535Z,-1.16
2019-01-29T19:04:30.799Z,-1.16
2019-01-29T19:07:00.058Z,-1.24
2019-01-29T19:09:29.315Z,-1.30
2019-01-29T19:11:58.843Z,-1.32
2019-01-29T19:14:28.092Z,-1.30
2019-01-29T19:16:58.124Z,-1.35
2019-01-29T19:19:27.373Z,-1.42
2019-01-29T19:21:56.933Z,-1.43
2019-01-29T19:24:26.320Z,-1.51
2019-01-29T19:26:55.887Z,-1.57
2019-01-29T19:29:25.459Z,-1.62
2019-01-29T19:31:54.769Z,-1.69
2019-01-29T19:34:24.854Z,-1.76
2019-01-29T19:36:54.092Z,-1.75
2019-01-29T19:39:23.334Z,-1.76
2019-01-29T19:41:52.928Z,-1.77
2019-01-29T19:44:24.367Z,-1.80
2019-01-29T19:46:53.616Z,-1.89
2019-01-29T19:49:22.902Z,-1.95
2019-01-29T19:51:54.565Z,-1.94
2019-01-29T19:54:26.044Z,-1.98
2019-01-29T19:56:55.266Z,-2.00
2019-01-29T19:59:24.513Z,-1.97
2019-01-29T20:01:53.750Z,-2.01
2019-01-29T20:04:23.000Z,-2.09
2019-01-29T20:06:55.233Z,-2.04
2019-01-29T20:09:26.774Z,-2.03
2019-01-29T20:11:56.328Z,-2.10
2019-01-29T20:14:25.572Z,-2.03
2019-01-29T20:16:54.787Z,-2.04
2019-01-29T20:19:26.291Z,-2.06
2019-01-29T20:21:55.529Z,-2.06
2019-01-29T20:24:24.784Z,-2.09
2019-01-29T20:26:54.033Z,-2.13
2019-01-29T20:29:23.125Z,-2.18
2019-01-29T20:31:52.359Z,-2.18
2019-01-29T20:34:23.944Z,-2.16
2019-01-29T20:36:54.401Z,-2.18
2019-01-29T20:39:34.533Z,-2.21
2019-01-29T20:41:55.603Z,-2.26
2019-01-29T20:44:24.995Z,-2.30
2019-01-29T20:46:56.729Z,-2.30
2019-01-29T20:49:25.978Z,-2.32
2019-01-29T20:51:55.223Z,-2.29
2019-01-29T20:54:24.472Z,-2.31
2019-01-29T20:56:53.694Z,-2.32
2019-01-29T20:59:22.971Z,-2.31
2019-01-29T21:01:52.213Z,-2.34
2019-01-29T21:04:21.761Z,-2.37
2019-01-29T21:06:52.452Z,-2.32
2019-01-29T21:09:21.683Z,-2.41
2019-01-29T21:11:50.937Z,-2.40
2019-01-29T21:14:20.157Z,-2.45
2019-01-29T21:16:49.404Z,-2.45
2019-01-29T21:19:18.647Z,-2.40
2019-01-29T21:21:47.903Z,-2.46
2019-01-29T21:24:18.342Z,-2.45
2019-01-29T21:26:47.606Z,-2.46
2019-01-29T21:29:16.864Z,-2.50
2019-01-29T21:31:46.130Z,-2.49
2019-01-29T21:34:15.406Z,-2.50
2019-01-29T21:36:47.062Z,-2.51
2019-01-29T21:39:16.555Z,-2.56
2019-01-29T21:41:45.823Z,-2.63
2019-01-29T21:44:15.065Z,-2.63
2019-01-29T21:46:44.334Z,-2.73
2019-01-29T21:49:14.023Z,-2.66
2019-01-29T21:51:43.391Z,-2.65
2019-01-29T21:54:12.636Z,-2.71
2019-01-29T21:56:41.936Z,-2.74
2019-01-29T21:59:13.375Z,-2.75
2019-01-29T22:01:42.156Z,-2.83
2019-01-29T22:04:11.373Z,-2.97
2019-01-29T22:06:41.310Z,-3.05
2019-01-29T22:09:10.754Z,-3.09
2019-01-29T22:11:49.578Z,-3.07
2019-01-29T22:14:18.817Z,-3.09
2019-01-29T22:16:49.506Z,-3.09
2019-01-29T22:19:19.107Z,-3.11
2019-01-29T22:21:48.373Z,-3.12
2019-01-29T22:24:19.072Z,-3.12
2019-01-29T22:26:48.307Z,-3.13
2019-01-29T22:29:23.116Z,-3.10
2019-01-29T22:31:48.510Z,-3.17
2019-01-29T22:34:17.774Z,-3.26
2019-01-29T22:36:47.029Z,-3.28
2019-01-29T22:39:16.268Z,-3.26
2019-01-29T22:41:45.527Z,-3.32
2019-01-29T22:44:15.423Z,-3.36
2019-01-29T22:46:44.718Z,-3.42
2019-01-29T22:49:13.977Z,-3.39
2019-01-29T22:51:43.250Z,-3.40
2019-01-29T22:54:14.645Z,-3.39
2019-01-29T22:56:45.089Z,-3.39
2019-01-29T22:59:14.315Z,-3.48
2019-01-29T23:01:43.870Z,-3.58
2019-01-29T23:04:28.039Z,-3.57
2019-01-29T23:07:22.585Z,-3.50
2019-01-29T23:09:51.812Z,-3.48
2019-01-29T23:12:21.055Z,-3.53
2019-01-29T23:14:50.267Z,-3.50
2019-01-29T23:17:19.521Z,-3.50
2019-01-29T23:19:48.749Z,-3.56
2019-01-29T23:22:18.721Z,-3.59
2019-01-29T23:24:49.203Z,-3.68
2019-01-29T23:27:18.428Z,-3.68
2019-01-29T23:29:47.678Z,-3.74
2019-01-29T23:32:16.910Z,-3.74
2019-01-29T23:34:46.625Z,-3.74
2019-01-29T23:37:16.612Z,-3.78
2019-01-29T23:39:45.850Z,-3.71
2019-01-29T23:42:15.415Z,-3.77
2019-01-29T23:44:44.667Z,-3.73
2019-01-29T23:47:13.880Z,-3.73
2019-01-29T23:49:46.437Z,-3.72
2019-01-29T23:52:16.445Z,-3.70
2019-01-29T23:54:45.693Z,-3.74
2019-01-29T23:57:14.916Z,-3.74
2019-01-29T23:59:53.571Z,-3.71
